• Join FlightAware (Why Join?)
  • Login
  • US Flag 
09:59AM EDT


 

Airport Tracker/Info


-or-


 

Live Flight TrackerFlight Track Log ✈ UAL4528 ✈ 16-Apr-2013 ✈ KLFT - KIAH

Flight Track Log - Related Links

Times and Time Zones

All times are in EDT time to prevent confusion due to time zone crossing. See the UAL4528 flight status page for this flight to view local times or setup timezone preferences in your user account.

Time Position Orientation Groundspeed Altitude Reporting Facility
EDT Latitude Longitude Course Direction KTS MPH feet Rate Location/Type
03:19PM 30.1369 -92.0797 227° Southwest 251 289 18,000  Level Houston Center
03:20PM 30.0947 -92.1425 232° Southwest 259 298 6,900 -4,320 Descending Houston Center
03:21PM 30.0517 -92.2117 234° Southwest 259 298 9,100 1,500 Climbing Houston Center
03:22PM 30.0025 -92.2850 232° Southwest 270 311 10,000 720 Climbing Houston Center
03:23PM 29.9411 -92.3769 232° Southwest 315 362 10,600 960 Climbing Houston Center
03:24PM 29.8856 -92.4346 227° Southwest  Level FlightAware Approximate
03:24PM 29.8667 -92.4933 234° Southwest 352 405 12,000  Level Houston Center
03:25PM 29.8211 -92.5997 244° Southwest 366 421 13,300 1,200 Climbing Houston Center
03:26PM 29.7919 -92.7247 255° West 389 448 14,500 1,140 Climbing Houston Center
03:27PM 29.7647 -92.8461 256° West 390 449 15,700 720 Climbing Houston Center
03:28PM 29.7356 -92.9683 255° West 393 452 16,000 120 Climbing Houston Center
03:29PM 29.7072 -93.0936 255° West 400 460 16,000  Level Houston Center
03:30PM 29.6736 -93.2442 256° West 405 466 16,000 -60 Level Houston Center
03:31PM 29.6456 -93.3578 254° West 403 464 15,900 -60 Descending Houston Center
03:32PM 29.6161 -93.4803 255° West 400 460 15,900  Level Houston Center
03:34PM 29.5864 -93.6036 255° West 400 460 15,900  Level Houston Center
03:35PM 29.5519 -93.7500 255° West 398 458 15,900  Level Houston Center
03:36PM 29.5233 -93.8669 254° West 387 445 15,900  Level Houston Center
03:37PM 29.5217 -93.9875 269° West 387 445 16,000 -240 Climbing Houston Center
03:37PM 29.5233 -94.0700 271° West 386 444 15,600 -720 Descending Houston Center
03:38PM 29.5258 -94.1117 274° West 388 447 15,300 -1,020 Descending Houston Center
03:38PM 29.5278 -94.1944 272° West 407 468 14,600 -1,080 Descending Houston Center
03:39PM 29.5297 -94.2422 273° West 402 463 14,200 -1,320 Descending Houston Center
03:39PM 29.5350 -94.3306 274° West 380 437 13,300 -1,200 Descending Houston Center
03:40PM 29.5439 -94.3617 288° West 392 451 13,000 -1,500 Descending Houston Center
03:40PM 29.5706 -94.4342 293° West 343 395 11,800 -2,280 Descending Houston Center
03:41PM 29.5906 -94.4797 297° West 348 400 10,700 -1,680 Descending Houston Center
03:41PM 29.6114 -94.5300 295° West 339 390 10,100 -720 Descending Houston Center
03:42PM 29.6325 -94.5756 298° West 338 389 10,000 -120 Descending Houston Center
03:42PM 29.6494 -94.6189 294° West 332 382 10,000 -240 Level Houston Center
03:43PM 29.6725 -94.6678 299° West 328 377 9,800 -1,020 Descending Houston Center
03:43PM 29.6875 -94.7056 295° West 283 326 9,000 -1,920 Descending Houston Center
03:44PM 29.7067 -94.7492 297° West 290 334 7,800 -2,160 Descending Houston Center
03:44PM 29.7261 -94.8017 293° West 292 336 6,600 -1,680 Descending Houston Center
03:45PM 29.7422 -94.8331 301° West 291 335 6,100 -660 Descending Houston Center
03:45PM 29.7606 -94.8767 296° West 290 334 6,000 -120 Descending Houston Center
03:46PM 29.7839 -94.9322 296° West 290 334 6,000  Level Houston Center
03:46PM 29.7964 -94.9661 293° West 286 329 6,000  Level Houston Center
03:47PM 29.8183 -95.0147 297° West 289 333 6,000  Level Houston Center
03:47PM 29.8342 -95.0556 294° West 289 333 6,000  Level Houston Center
03:48PM 29.8528 -95.0972 297° West 289 333 6,000  Level Houston Center
03:48PM 29.8694 -95.1403 294° West 291 335 6,000  Level Houston Center
03:49PM 29.8875 -95.1797 298° West 289 333 6,000  Level Houston Center
03:49PM 29.8981 -95.2236 286° West 276 318 6,000  Level Houston Center
03:50PM 29.9008 -95.2814 273° West 271 312 6,000  Level Houston Center
03:50PM 29.8992 -95.3028 265° West 270 311 6,000  Level Houston Center
03:51PM 29.9003 -95.3681 271° West 271 312 6,000  Level Houston Center
03:52PM 29.9000 -95.4575 270° West 279 321 6,000  Level Houston Center
03:53PM 29.9017 -95.5453 271° West 277 319 6,000 -660 Level Houston Center
03:54PM 29.9261 -95.6467 286° West 270 311 4,600 -1,140 Descending Houston Center
03:55PM 29.9794 -95.6292 16° North 259 298 3,700 -1,080 Descending Houston Center
03:56PM 29.9883 -95.6128 58° Northeast 239 275 3,400 -720 Descending Houston Center
03:56PM 29.9942 -95.5600 83° East 239 275 3,000 -660 Descending Houston Center
03:57PM 29.9931 -95.4919 91° East 221 254 2,300 -840 Descending Houston Center
03:58PM 29.9933 -95.4242 90° East 215 247 1,300 -960 Descending Houston Center
03:59PM 29.9931 -95.3639 90° East 146 168 300 -900 Descending Houston Center